Nausori, Fiji
Current Conditions -  °F | °C
As of 4:00 PM on Sunday 26 Oct 2014 (Local Time) from NFNA Reporting Station
Broken Clouds Broken Clouds  
Wind Chill: 75°   Ceiling: 2000
Heat Index: 75°   Visibility: 6mi
Dew Point: 64°   Wind: 7mph
Humidity: 69%   Direction: 130°SE
Pressure: 29.88"   Gusts: NA
Location:  18.02°S, 178.53°E
Report Text: NFNA 260400Z 13006KT 9999 BKN020 BKN048 BKN120 24/18 Q1012
Loading
Personal Weather Stations






























Interactive Weather Map
Tropical Storm Tracking
New forecast layout! Learn more

10-Day Weather Forecast

Advertisements
Track Severe Weather on mobile